createdAt,value
2022-10-22T00:00:47.617Z,23.51
2022-10-22T00:05:46.850Z,23.53
2022-10-22T00:10:47.104Z,23.47
2022-10-22T00:15:45.303Z,23.46
2022-10-22T00:20:45.495Z,23.40
2022-10-22T00:25:43.773Z,23.40
2022-10-22T00:30:43.052Z,23.25
2022-10-22T00:35:42.685Z,23.57
2022-10-22T00:40:42.480Z,23.72
2022-10-22T00:45:42.042Z,23.58
2022-10-22T00:50:39.817Z,23.69
2022-10-22T00:55:39.076Z,23.43
2022-10-22T01:00:38.299Z,23.85
2022-10-22T01:05:37.512Z,24.24
2022-10-22T01:10:36.725Z,24.42
2022-10-22T01:15:36.058Z,24.37
2022-10-22T01:20:35.241Z,24.09
2022-10-22T01:25:35.444Z,24.08
2022-10-22T01:30:33.621Z,23.93
2022-10-22T01:40:32.088Z,23.70
2022-10-22T01:45:30.311Z,23.36
2022-10-22T01:50:30.948Z,23.05
2022-10-22T01:55:29.787Z,23.19
2022-10-22T02:00:29.031Z,23.02
2022-10-22T02:05:28.265Z,23.35
2022-10-22T02:10:29.453Z,23.48
2022-10-22T02:15:26.924Z,23.55
2022-10-22T02:20:26.978Z,23.58
2022-10-22T02:25:26.162Z,23.55
2022-10-22T02:30:24.339Z,23.43
2022-10-22T02:35:24.558Z,23.23
2022-10-22T02:40:22.747Z,23.23
2022-10-22T02:45:22.255Z,23.09
2022-10-22T02:50:25.375Z,22.72
2022-10-22T02:55:20.655Z,22.58
2022-10-22T03:01:00.920Z,22.82
2022-10-22T03:05:19.079Z,22.73
2022-10-22T03:10:18.438Z,22.95
2022-10-22T03:15:18.707Z,23.16
2022-10-22T03:20:17.067Z,23.32
2022-10-22T03:25:16.550Z,23.61
2022-10-22T03:30:15.351Z,23.58
2022-10-22T03:35:15.651Z,23.76
2022-10-22T03:40:13.889Z,23.36
2022-10-22T03:45:13.622Z,23.40
2022-10-22T03:50:12.565Z,23.42
2022-10-22T03:55:11.871Z,23.39
2022-10-22T04:00:10.872Z,23.42
2022-10-22T04:05:10.167Z,23.40
2022-10-22T04:10:08.354Z,23.22
2022-10-22T04:15:09.580Z,23.43
2022-10-22T04:20:07.981Z,23.46
2022-10-22T04:25:06.969Z,23.88
2022-10-22T04:30:06.306Z,24.06
2022-10-22T04:35:05.403Z,24.24
2022-10-22T04:40:04.621Z,24.22
2022-10-22T04:45:05.126Z,24.31
2022-10-22T04:50:02.436Z,24.34
2022-10-22T04:55:01.693Z,24.34
2022-10-22T05:00:02.938Z,24.22
2022-10-22T05:05:01.023Z,24.02
2022-10-22T05:10:00.362Z,24.05
2022-10-22T05:14:59.399Z,24.09
2022-10-22T05:19:58.548Z,24.15
2022-10-22T05:24:57.698Z,24.22
2022-10-22T05:29:56.923Z,24.45
2022-10-22T05:34:56.092Z,24.60
2022-10-22T05:40:06.483Z,24.76
2022-10-22T05:44:54.537Z,24.83
2022-10-22T05:49:53.674Z,24.78
2022-10-22T05:54:53.280Z,24.53
2022-10-22T05:59:53.255Z,24.58
2022-10-22T06:04:51.392Z,24.61
2022-10-22T06:09:50.550Z,24.65
2022-10-22T06:14:50.858Z,24.93
2022-10-22T06:19:49.182Z,25.13
2022-10-22T06:24:49.044Z,25.13
2022-10-22T06:29:47.808Z,25.25
2022-10-22T06:34:46.961Z,25.20
2022-10-22T06:39:46.543Z,25.32
2022-10-22T06:44:45.219Z,25.20
2022-10-22T06:49:44.521Z,25.13
2022-10-22T06:54:43.920Z,24.96
2022-10-22T06:59:43.041Z,24.93
2022-10-22T07:04:43.386Z,24.95
2022-10-22T07:09:41.864Z,25.09
2022-10-22T07:14:42.069Z,25.27
2022-10-22T07:19:39.800Z,25.46
2022-10-22T07:24:40.524Z,25.60
2022-10-22T07:29:40.840Z,25.40
2022-10-22T07:34:40.558Z,25.35
2022-10-22T07:39:37.421Z,25.67
2022-10-22T07:44:36.652Z,25.98
2022-10-22T07:49:35.744Z,26.01
2022-10-22T07:54:35.062Z,26.51
2022-10-22T07:59:34.386Z,26.63
2022-10-22T08:04:33.724Z,26.81
2022-10-22T08:09:35.010Z,26.95
2022-10-22T08:14:32.284Z,27.22
2022-10-22T08:19:31.581Z,26.97
2022-10-22T08:24:31.851Z,26.70
2022-10-22T08:29:31.168Z,26.82
2022-10-22T08:34:29.466Z,26.75
2022-10-22T08:39:29.784Z,26.62
2022-10-22T08:44:28.086Z,26.80
2022-10-22T08:49:26.376Z,27.02
2022-10-22T08:54:27.693Z,27.39
2022-10-22T08:59:26.020Z,27.44
2022-10-22T09:04:25.415Z,27.51
2022-10-22T09:09:24.578Z,27.40
2022-10-22T09:14:23.897Z,27.25
2022-10-22T09:19:23.196Z,27.03
2022-10-22T09:24:22.479Z,27.06
2022-10-22T09:29:21.764Z,27.21
2022-10-22T09:34:23.089Z,27.09
2022-10-22T09:39:20.384Z,27.21
2022-10-22T09:44:20.638Z,27.84
2022-10-22T09:49:18.907Z,28.30
2022-10-22T09:54:19.191Z,28.21
2022-10-22T09:59:16.447Z,27.96
2022-10-22T10:04:17.781Z,28.21
2022-10-22T10:09:16.964Z,28.51
2022-10-22T10:14:15.158Z,28.44
2022-10-22T10:19:14.464Z,28.54
2022-10-22T10:24:14.745Z,29.19
2022-10-22T10:29:13.032Z,29.06
2022-10-22T10:34:12.351Z,28.88
2022-10-22T10:39:12.678Z,28.46
2022-10-22T10:44:11.997Z,28.36
2022-10-22T10:49:11.303Z,28.40
2022-10-22T10:54:09.590Z,28.29
2022-10-22T10:59:08.898Z,28.56
2022-10-22T11:04:09.202Z,28.90
2022-10-22T11:09:07.600Z,28.98
2022-10-22T11:14:07.750Z,28.83
2022-10-22T11:19:06.067Z,28.89
2022-10-22T11:24:05.368Z,28.41
2022-10-22T11:29:05.668Z,27.93
2022-10-22T11:34:28.463Z,27.66
2022-10-22T11:39:03.270Z,27.78
2022-10-22T11:44:03.419Z,27.85
2022-10-22T11:49:02.731Z,27.79
2022-10-22T11:54:01.028Z,27.84
2022-10-22T11:59:00.372Z,27.65
2022-10-22T12:03:59.582Z,27.55
2022-10-22T12:08:59.799Z,27.59
2022-10-22T12:13:57.983Z,27.78
2022-10-22T12:18:57.173Z,27.77
2022-10-22T12:23:57.365Z,27.78
2022-10-22T12:28:55.556Z,27.79
2022-10-22T12:33:54.745Z,27.90
2022-10-22T12:38:54.957Z,27.72
2022-10-22T12:43:53.128Z,27.66
2022-10-22T12:48:53.323Z,27.77
2022-10-22T12:53:51.505Z,27.79
2022-10-22T12:58:51.780Z,27.78
2022-10-22T13:03:49.984Z,27.75
2022-10-22T13:08:49.194Z,27.70
2022-10-22T13:13:49.427Z,27.65
2022-10-22T13:18:48.596Z,27.40
2022-10-22T13:23:46.757Z,27.39
2022-10-22T13:28:45.956Z,27.57
2022-10-22T13:33:45.110Z,27.72
2022-10-22T13:38:44.306Z,27.63
2022-10-22T13:43:43.491Z,27.69
2022-10-22T13:48:43.670Z,27.59
2022-10-22T13:53:43.851Z,27.44
2022-10-22T13:58:41.016Z,27.21
2022-10-22T14:03:40.185Z,27.27
2022-10-22T14:08:39.431Z,27.37
2022-10-22T14:13:38.615Z,27.55
2022-10-22T14:18:39.810Z,27.50
2022-10-22T14:23:37.010Z,27.67
2022-10-22T14:28:41.193Z,27.60
2022-10-22T14:33:36.530Z,27.40
2022-10-22T14:38:34.541Z,27.09
2022-10-22T14:43:34.938Z,27.19
2022-10-22T14:48:32.920Z,27.27
2022-10-22T14:53:32.131Z,27.29
2022-10-22T14:58:31.336Z,27.34
2022-10-22T15:03:30.617Z,27.32
2022-10-22T15:08:29.810Z,26.99
2022-10-22T15:13:29.995Z,26.95
2022-10-22T15:18:30.195Z,26.81
2022-10-22T15:23:28.365Z,26.62
2022-10-22T15:28:26.552Z,26.51
2022-10-22T15:33:25.746Z,26.48
2022-10-22T15:38:25.063Z,26.33
2022-10-22T15:43:25.261Z,26.35
2022-10-22T15:48:23.643Z,26.13
2022-10-22T15:53:23.661Z,26.13
2022-10-22T15:58:21.858Z,25.92
2022-10-22T16:03:21.237Z,25.97
2022-10-22T16:08:22.308Z,25.95
2022-10-22T16:13:20.474Z,25.79
2022-10-22T16:18:20.657Z,25.17
2022-10-22T16:23:19.214Z,24.93
2022-10-22T16:28:17.104Z,25.40
2022-10-22T16:33:16.297Z,24.96
2022-10-22T16:38:15.466Z,25.05
2022-10-22T16:43:14.678Z,25.13
2022-10-22T16:48:15.188Z,25.57
2022-10-22T16:53:14.040Z,25.70
2022-10-22T16:58:12.350Z,25.43
2022-10-22T17:03:12.777Z,25.40
2022-10-22T17:08:10.709Z,25.40
2022-10-22T17:13:11.309Z,25.15
2022-10-22T17:18:09.421Z,25.17
2022-10-22T17:23:09.766Z,25.08
2022-10-22T17:28:08.038Z,25.36
2022-10-22T17:33:07.132Z,26.01
2022-10-22T17:38:10.402Z,26.44
2022-10-22T17:43:05.965Z,26.52
2022-10-22T17:48:04.979Z,26.69
2022-10-22T17:53:04.959Z,27.36
2022-10-22T17:58:04.396Z,27.51
2022-10-22T18:03:03.428Z,27.62
2022-10-22T18:08:05.531Z,27.59
2022-10-22T18:13:01.224Z,27.44
2022-10-22T18:18:01.452Z,27.29
2022-10-22T18:23:00.608Z,27.74
2022-10-22T18:28:03.813Z,27.97
2022-10-22T18:32:58.208Z,27.85
2022-10-22T18:37:58.476Z,27.70
2022-10-22T18:42:56.419Z,27.84
2022-10-22T18:47:56.982Z,27.57
2022-10-22T18:52:55.208Z,27.85
2022-10-22T18:57:54.484Z,28.30
2022-10-22T19:02:55.718Z,27.94
2022-10-22T19:07:53.794Z,27.88
2022-10-22T19:12:51.959Z,27.82
2022-10-22T19:17:51.072Z,27.74
2022-10-22T19:22:52.606Z,27.82
2022-10-22T19:27:49.577Z,28.07
2022-10-22T19:32:48.767Z,28.56
2022-10-22T19:37:48.593Z,28.52
2022-10-22T19:42:48.260Z,28.11
2022-10-22T19:47:46.325Z,27.82
2022-10-22T19:52:46.743Z,28.14
2022-10-22T19:57:46.956Z,28.12
2022-10-22T20:02:45.962Z,28.24
2022-10-22T20:07:43.610Z,28.46
2022-10-22T20:12:43.735Z,28.33
2022-10-22T20:17:45.569Z,28.48
2022-10-22T20:22:42.175Z,28.22
2022-10-22T20:27:41.317Z,28.09
2022-10-22T20:32:39.839Z,28.19
2022-10-22T20:37:38.861Z,28.43
2022-10-22T20:42:38.051Z,28.43
2022-10-22T20:47:51.133Z,28.43
2022-10-22T20:52:38.801Z,28.29
2022-10-22T20:57:35.827Z,28.31
2022-10-22T21:02:35.305Z,28.58
2022-10-22T21:07:34.314Z,29.16
2022-10-22T21:12:33.503Z,28.90
2022-10-22T21:17:33.714Z,28.76
2022-10-22T21:22:31.913Z,28.61
2022-10-22T21:27:31.077Z,28.67
2022-10-22T21:32:30.286Z,28.93
2022-10-22T21:37:30.491Z,28.98
2022-10-22T21:42:28.665Z,29.18
2022-10-22T21:47:28.879Z,29.00
2022-10-22T21:52:27.031Z,28.90
2022-10-22T21:57:27.273Z,28.95
2022-10-22T22:02:25.466Z,28.78
2022-10-22T22:07:24.654Z,28.86
2022-10-22T22:12:23.843Z,28.76
2022-10-22T22:17:23.124Z,29.16
2022-10-22T22:22:22.419Z,29.33
2022-10-22T22:27:21.563Z,29.37
2022-10-22T22:32:21.761Z,29.43
2022-10-22T22:37:19.895Z,29.26
2022-10-22T22:42:19.059Z,29.18
2022-10-22T22:47:18.189Z,28.89
2022-10-22T22:52:18.393Z,28.70
2022-10-22T22:57:16.506Z,28.83
2022-10-22T23:02:16.824Z,29.27
2022-10-22T23:07:15.134Z,29.31
2022-10-22T23:12:15.278Z,29.41
2022-10-22T23:17:14.438Z,29.18
2022-10-22T23:22:14.757Z,28.95
2022-10-22T23:27:14.065Z,28.61
2022-10-22T23:32:12.392Z,28.44
2022-10-22T23:37:10.725Z,28.43
2022-10-22T23:42:10.835Z,28.11
2022-10-22T23:47:09.152Z,27.84
2022-10-22T23:52:08.484Z,27.67
2022-10-22T23:57:07.825Z,27.34
